createdAt,value
2019-03-23T00:00:04.039Z,1007.78
2019-03-23T00:01:04.033Z,1007.77
2019-03-23T00:02:04.031Z,1007.75
2019-03-23T00:03:04.004Z,1007.74
2019-03-23T00:04:04.013Z,1007.74
2019-03-23T00:05:04.012Z,1007.78
2019-03-23T00:06:03.966Z,1007.80
2019-03-23T00:07:03.975Z,1007.82
2019-03-23T00:08:03.945Z,1007.78
2019-03-23T00:09:03.950Z,1007.77
2019-03-23T00:10:03.956Z,1007.77
2019-03-23T00:11:03.930Z,1007.79
2019-03-23T00:12:03.944Z,1007.78
2019-03-23T00:13:03.920Z,1007.78
2019-03-23T00:14:03.877Z,1007.77
2019-03-23T00:15:03.890Z,1007.77
2019-03-23T00:16:03.852Z,1007.75
2019-03-23T00:17:03.865Z,1007.76
2019-03-23T00:18:03.849Z,1007.72
2019-03-23T00:19:03.832Z,1007.73
2019-03-23T00:20:03.809Z,1007.72
2019-03-23T00:21:03.801Z,1007.69
2019-03-23T00:22:03.827Z,1007.68
2019-03-23T00:23:03.808Z,1007.66
2019-03-23T00:24:03.761Z,1007.65
2019-03-23T00:25:03.786Z,1007.68
2019-03-23T00:26:03.740Z,1007.64
2019-03-23T00:27:03.777Z,1007.62
2019-03-23T00:28:03.719Z,1007.61
2019-03-23T00:29:03.721Z,1007.61
2019-03-23T00:30:03.699Z,1007.60
2019-03-23T00:31:03.718Z,1007.62
2019-03-23T00:32:03.707Z,1007.60
2019-03-23T00:33:03.667Z,1007.63
2019-03-23T00:34:03.650Z,1007.63
2019-03-23T00:35:03.637Z,1007.66
2019-03-23T00:36:03.650Z,1007.64
2019-03-23T00:37:03.622Z,1007.67
2019-03-23T00:38:03.605Z,1007.66
2019-03-23T00:39:03.601Z,1007.60
2019-03-23T00:40:03.606Z,1007.60
2019-03-23T00:41:03.571Z,1007.57
2019-03-23T00:42:03.564Z,1007.56
2019-03-23T00:43:03.580Z,1007.54
2019-03-23T00:44:03.541Z,1007.48
2019-03-23T00:45:03.527Z,1007.51
2019-03-23T00:46:03.548Z,1007.52
2019-03-23T00:47:03.533Z,1007.50
2019-03-23T00:48:03.546Z,1007.51
2019-03-23T00:49:03.509Z,1007.48
2019-03-23T00:50:03.470Z,1007.52
2019-03-23T00:51:03.461Z,1007.45
2019-03-23T00:52:03.472Z,1007.41
2019-03-23T00:53:03.435Z,1007.42
2019-03-23T00:54:03.454Z,1007.42
2019-03-23T00:55:03.451Z,1007.39
2019-03-23T00:56:03.403Z,1007.39
2019-03-23T00:57:03.410Z,1007.41
2019-03-23T00:58:03.428Z,1007.39
2019-03-23T00:59:03.419Z,1007.38
2019-03-23T01:00:03.364Z,1007.38
2019-03-23T01:01:03.370Z,1007.38
2019-03-23T01:02:03.336Z,1007.42
2019-03-23T01:03:03.352Z,1007.35
2019-03-23T01:04:03.337Z,1007.42
2019-03-23T01:05:03.349Z,1007.38
2019-03-23T01:06:03.318Z,1007.42
2019-03-23T01:07:03.280Z,1007.39
2019-03-23T01:08:03.273Z,1007.46
2019-03-23T01:09:03.258Z,1007.45
2019-03-23T01:10:03.268Z,1007.41
2019-03-23T01:11:03.238Z,1007.41
2019-03-23T01:12:03.259Z,1007.40
2019-03-23T01:13:03.246Z,1007.38
2019-03-23T01:14:03.251Z,1007.31
2019-03-23T01:15:03.198Z,1007.36
2019-03-23T01:16:03.201Z,1007.35
2019-03-23T01:17:03.221Z,1007.30
2019-03-23T01:18:03.213Z,1007.32
2019-03-23T01:19:03.193Z,1007.31
2019-03-23T01:20:03.168Z,1007.31
2019-03-23T01:21:03.151Z,1007.29
2019-03-23T01:22:03.118Z,1007.32
2019-03-23T01:23:03.154Z,1007.30
2019-03-23T01:24:03.091Z,1007.29
2019-03-23T01:25:03.105Z,1007.27
2019-03-23T01:26:03.192Z,1007.29
2019-03-23T01:27:03.074Z,1007.33
2019-03-23T01:28:03.045Z,1007.25
2019-03-23T01:29:03.033Z,1007.32
2019-03-23T01:30:03.028Z,1007.26
2019-03-23T01:31:03.041Z,1007.31
2019-03-23T01:32:02.999Z,1007.31
2019-03-23T01:33:02.993Z,1007.32
2019-03-23T01:34:02.983Z,1007.34
2019-03-23T01:35:02.988Z,1007.31
2019-03-23T01:36:02.954Z,1007.30
2019-03-23T01:37:03.213Z,1007.30
2019-03-23T01:38:02.936Z,1007.25
2019-03-23T01:39:02.922Z,1007.30
2019-03-23T01:40:02.909Z,1007.32
2019-03-23T01:41:02.924Z,1007.28
2019-03-23T01:42:02.911Z,1007.34
2019-03-23T01:43:02.876Z,1007.30
2019-03-23T01:44:02.880Z,1007.27
2019-03-23T01:45:02.853Z,1007.27
2019-03-23T01:46:02.841Z,1007.27
2019-03-23T01:47:02.854Z,1007.30
2019-03-23T01:48:02.819Z,1007.24
2019-03-23T01:49:02.810Z,1007.34
2019-03-23T01:50:02.800Z,1007.33
2019-03-23T01:51:02.790Z,1007.31
2019-03-23T01:52:02.799Z,1007.32
2019-03-23T01:53:02.763Z,1007.31
2019-03-23T01:54:02.776Z,1007.31
2019-03-23T01:55:02.745Z,1007.32
2019-03-23T01:56:02.734Z,1007.30
2019-03-23T01:57:02.722Z,1007.28
2019-03-23T01:58:02.736Z,1007.27
2019-03-23T01:59:02.696Z,1007.34
2019-03-23T02:00:02.686Z,1007.30
2019-03-23T02:01:02.674Z,1007.30
2019-03-23T02:02:02.663Z,1007.28
2019-03-23T02:03:02.673Z,1007.28
2019-03-23T02:04:02.642Z,1007.26
2019-03-23T02:05:02.631Z,1007.26
2019-03-23T02:06:02.678Z,1007.23
2019-03-23T02:07:13.204Z,1007.23
2019-03-23T02:08:03.600Z,1007.23
2019-03-23T02:09:02.585Z,1007.18
2019-03-23T02:10:02.573Z,1007.15
2019-03-23T02:11:02.590Z,1007.15
2019-03-23T02:12:02.557Z,1007.12
2019-03-23T02:13:02.539Z,1007.10
2019-03-23T02:14:02.525Z,1007.15
2019-03-23T02:15:02.515Z,1007.16
2019-03-23T02:16:02.529Z,1007.13
2019-03-23T02:17:02.492Z,1007.16
2019-03-23T02:18:02.481Z,1007.12
2019-03-23T02:19:02.500Z,1007.20
2019-03-23T02:20:02.464Z,1007.15
2019-03-23T02:21:02.447Z,1007.21
2019-03-23T02:22:02.445Z,1007.24
2019-03-23T02:23:02.430Z,1007.21
2019-03-23T02:24:02.436Z,1007.19
2019-03-23T02:25:02.404Z,1007.18
2019-03-23T02:26:02.390Z,1007.15
2019-03-23T02:27:02.382Z,1007.19
2019-03-23T02:28:02.368Z,1007.21
2019-03-23T02:29:02.380Z,1007.16
2019-03-23T02:30:02.354Z,1007.17
2019-03-23T02:31:02.342Z,1007.17
2019-03-23T02:32:02.330Z,1007.18
2019-03-23T02:33:02.346Z,1007.16
2019-03-23T02:34:02.316Z,1007.21
2019-03-23T02:35:02.297Z,1007.19
2019-03-23T02:36:02.285Z,1007.22
2019-03-23T02:37:02.271Z,1007.20
2019-03-23T02:38:02.281Z,1007.19
2019-03-23T02:39:02.251Z,1007.18
2019-03-23T02:40:02.240Z,1007.19
2019-03-23T02:41:02.254Z,1007.16
2019-03-23T02:42:02.244Z,1007.20
2019-03-23T02:43:02.205Z,1007.21
2019-03-23T02:44:02.191Z,1007.20
2019-03-23T02:45:02.185Z,1007.20
2019-03-23T02:46:02.172Z,1007.24
2019-03-23T02:47:02.189Z,1007.21
2019-03-23T02:48:02.151Z,1007.22
2019-03-23T02:49:02.140Z,1007.21
2019-03-23T02:50:02.130Z,1007.19
2019-03-23T02:51:02.119Z,1007.23
2019-03-23T02:52:02.130Z,1007.25
2019-03-23T02:53:02.103Z,1007.21
2019-03-23T02:54:02.083Z,1007.19
2019-03-23T02:55:02.091Z,1007.17
2019-03-23T02:56:02.062Z,1007.17
2019-03-23T02:57:02.076Z,1007.14
2019-03-23T02:58:02.037Z,1007.16
2019-03-23T02:59:02.028Z,1007.22
2019-03-23T03:00:02.013Z,1007.17
2019-03-23T03:01:02.007Z,1007.20
2019-03-23T03:02:02.014Z,1007.17
2019-03-23T03:03:01.977Z,1007.15
2019-03-23T03:04:01.980Z,1007.13
2019-03-23T03:05:01.963Z,1007.15
2019-03-23T03:06:01.951Z,1007.11
2019-03-23T03:07:01.960Z,1007.10
2019-03-23T03:08:01.951Z,1007.15
2019-03-23T03:09:01.910Z,1007.15
2019-03-23T03:10:01.909Z,1007.14
2019-03-23T03:11:01.905Z,1007.13
2019-03-23T03:12:01.892Z,1007.13
2019-03-23T03:13:01.878Z,1007.09
2019-03-23T03:14:01.900Z,1007.11
2019-03-23T03:15:01.851Z,1007.11
2019-03-23T03:16:01.836Z,1007.11
2019-03-23T03:17:01.827Z,1007.09
2019-03-23T03:18:01.813Z,1007.08
2019-03-23T03:19:01.843Z,1007.13
2019-03-23T03:20:01.788Z,1007.12
2019-03-23T03:21:01.779Z,1007.07
2019-03-23T03:22:01.769Z,1007.11
2019-03-23T03:23:01.760Z,1007.15
2019-03-23T03:24:01.767Z,1007.11
2019-03-23T03:25:01.737Z,1007.10
2019-03-23T03:26:01.724Z,1007.07
2019-03-23T03:27:01.742Z,1007.13
2019-03-23T03:28:01.701Z,1007.12
2019-03-23T03:29:01.689Z,1007.13
2019-03-23T03:30:01.711Z,1007.11
2019-03-23T03:31:01.725Z,1007.15
2019-03-23T03:32:01.658Z,1007.16
2019-03-23T03:33:01.660Z,1007.17
2019-03-23T03:34:01.649Z,1007.17
2019-03-23T03:35:01.736Z,1007.16
2019-03-23T03:36:01.608Z,1007.19
2019-03-23T03:37:01.599Z,1007.17
2019-03-23T03:38:01.587Z,1007.16
2019-03-23T03:39:01.578Z,1007.16
2019-03-23T03:40:01.590Z,1007.15
2019-03-23T03:41:01.551Z,1007.12
2019-03-23T03:42:01.541Z,1007.12
2019-03-23T03:43:01.556Z,1007.15
2019-03-23T03:44:01.549Z,1007.15
2019-03-23T03:45:01.508Z,1007.13
2019-03-23T03:46:01.499Z,1007.15
2019-03-23T03:47:01.489Z,1007.18
2019-03-23T03:48:01.481Z,1007.13
2019-03-23T03:49:11.735Z,1007.16
2019-03-23T03:50:02.451Z,1007.13
2019-03-23T03:51:01.444Z,1007.15
2019-03-23T03:52:01.435Z,1007.15
2019-03-23T03:53:01.447Z,1007.15
2019-03-23T03:54:01.411Z,1007.14
2019-03-23T03:55:01.422Z,1007.17
2019-03-23T03:56:01.385Z,1007.12
2019-03-23T03:57:01.376Z,1007.11
2019-03-23T03:58:01.396Z,1007.14
2019-03-23T03:59:01.361Z,1007.08
2019-03-23T04:00:01.337Z,1007.09
2019-03-23T04:01:01.335Z,1007.14
2019-03-23T04:02:01.320Z,1007.09
2019-03-23T04:03:01.346Z,1007.11
2019-03-23T04:04:01.297Z,1007.14
2019-03-23T04:05:01.345Z,1007.11
2019-03-23T04:06:01.270Z,1007.15
2019-03-23T04:07:01.259Z,1007.12
2019-03-23T04:08:10.896Z,1007.15
2019-03-23T04:09:02.244Z,1007.19
2019-03-23T04:10:01.244Z,1007.17
2019-03-23T04:11:01.215Z,1007.28
2019-03-23T04:12:01.209Z,1007.31
2019-03-23T04:13:01.220Z,1007.33
2019-03-23T04:14:01.223Z,1007.33
2019-03-23T04:15:01.172Z,1007.30
2019-03-23T04:16:01.166Z,1007.34
2019-03-23T04:17:01.151Z,1007.32
2019-03-23T04:18:01.140Z,1007.34
2019-03-23T04:19:01.152Z,1007.31
2019-03-23T04:20:01.115Z,1007.30
2019-03-23T04:21:01.105Z,1007.37
2019-03-23T04:22:01.100Z,1007.35
2019-03-23T04:23:01.116Z,1007.32
2019-03-23T04:24:01.076Z,1007.29
2019-03-23T04:25:01.062Z,1007.35
2019-03-23T04:26:01.056Z,1007.31
2019-03-23T04:27:01.041Z,1007.34
2019-03-23T04:28:01.052Z,1007.31
2019-03-23T04:29:01.013Z,1007.30
2019-03-23T04:30:01.001Z,1007.30
2019-03-23T04:31:01.018Z,1007.32
2019-03-23T04:32:00.982Z,1007.35
2019-03-23T04:33:00.972Z,1007.35
2019-03-23T04:34:00.963Z,1007.37
2019-03-23T04:35:00.949Z,1007.38
2019-03-23T04:36:00.981Z,1007.37
2019-03-23T04:37:00.934Z,1007.34
2019-03-23T04:38:00.920Z,1007.33
2019-03-23T04:39:00.902Z,1007.33
2019-03-23T04:40:00.895Z,1007.32
2019-03-23T04:41:00.909Z,1007.35
2019-03-23T04:42:00.867Z,1007.31
2019-03-23T04:43:00.860Z,1007.34
2019-03-23T04:44:00.849Z,1007.35
2019-03-23T04:45:00.855Z,1007.30
2019-03-23T04:46:00.821Z,1007.33
2019-03-23T04:47:00.817Z,1007.33
2019-03-23T04:48:00.818Z,1007.40
2019-03-23T04:49:00.790Z,1007.40
2019-03-23T04:50:00.783Z,1007.42
2019-03-23T04:51:00.767Z,1007.44
2019-03-23T04:52:00.754Z,1007.45
2019-03-23T04:53:00.779Z,1007.46
2019-03-23T04:54:00.737Z,1007.51
2019-03-23T04:55:00.724Z,1007.50
2019-03-23T04:56:00.711Z,1007.53
2019-03-23T04:57:00.703Z,1007.55
2019-03-23T04:58:00.714Z,1007.52
2019-03-23T04:59:00.690Z,1007.51
2019-03-23T05:00:00.666Z,1007.56
2019-03-23T05:01:00.691Z,1007.57
2019-03-23T05:02:00.647Z,1007.53
2019-03-23T05:03:00.635Z,1007.53
2019-03-23T05:04:00.624Z,1007.53
2019-03-23T05:05:00.617Z,1007.50
2019-03-23T05:06:00.640Z,1007.54
2019-03-23T05:07:00.589Z,1007.53
2019-03-23T05:08:00.579Z,1007.53
2019-03-23T05:09:00.565Z,1007.54
2019-03-23T05:10:00.558Z,1007.56
2019-03-23T05:11:00.569Z,1007.54
2019-03-23T05:12:00.541Z,1007.53
2019-03-23T05:13:00.522Z,1007.57
2019-03-23T05:14:00.512Z,1007.54
2019-03-23T05:15:00.525Z,1007.57
2019-03-23T05:16:00.494Z,1007.56
2019-03-23T05:17:00.479Z,1007.58
2019-03-23T05:18:00.492Z,1007.62
2019-03-23T05:19:00.484Z,1007.71
2019-03-23T05:20:00.442Z,1007.66
2019-03-23T05:21:00.432Z,1007.68
2019-03-23T05:22:00.420Z,1007.68
2019-03-23T05:23:00.415Z,1007.69
2019-03-23T05:24:00.433Z,1007.71
2019-03-23T05:25:00.453Z,1007.69
2019-03-23T05:26:00.375Z,1007.67
2019-03-23T05:27:00.363Z,1007.67
2019-03-23T05:28:00.359Z,1007.70
2019-03-23T05:29:00.367Z,1007.69
2019-03-23T05:30:00.366Z,1007.69
2019-03-23T05:31:00.322Z,1007.71
2019-03-23T05:32:00.308Z,1007.69
2019-03-23T05:33:00.318Z,1007.74
2019-03-23T05:34:00.291Z,1007.70
2019-03-23T05:35:00.363Z,1007.65
2019-03-23T05:36:00.268Z,1007.71
2019-03-23T05:37:00.253Z,1007.73
2019-03-23T05:38:00.245Z,1007.75
2019-03-23T05:39:00.232Z,1007.72
2019-03-23T05:40:00.343Z,1007.76
2019-03-23T05:41:00.207Z,1007.80
2019-03-23T05:42:00.200Z,1007.80
2019-03-23T05:43:00.189Z,1007.81
2019-03-23T05:44:00.196Z,1007.81
2019-03-23T05:45:00.344Z,1007.85
2019-03-23T05:46:00.151Z,1007.87
2019-03-23T05:47:00.145Z,1007.89
2019-03-23T05:48:00.133Z,1007.87
2019-03-23T05:49:00.132Z,1007.91
2019-03-23T05:50:00.191Z,1007.88
2019-03-23T05:51:00.118Z,1007.96
2019-03-23T05:52:01.557Z,1007.94
2019-03-23T05:53:00.074Z,1007.94
2019-03-23T05:54:00.061Z,1007.98
2019-03-23T05:55:00.055Z,1007.94
2019-03-23T05:56:00.069Z,1007.95
2019-03-23T05:57:00.029Z,1007.94
2019-03-23T05:58:00.019Z,1007.98
2019-03-23T05:59:00.009Z,1008.01
2019-03-23T06:00:00.023Z,1008.04
2019-03-23T06:00:59.983Z,1008.06
2019-03-23T06:01:59.979Z,1008.06
2019-03-23T06:02:59.963Z,1008.06
2019-03-23T06:03:59.950Z,1008.07
2019-03-23T06:04:59.965Z,1008.07
2019-03-23T06:05:59.938Z,1008.04
2019-03-23T06:06:59.916Z,1008.11
2019-03-23T06:07:59.908Z,1008.09
2019-03-23T06:08:59.914Z,1008.08
2019-03-23T06:09:59.896Z,1008.07
2019-03-23T06:10:59.874Z,1008.12
2019-03-23T06:11:59.864Z,1008.20
2019-03-23T06:12:59.877Z,1008.24
2019-03-23T06:13:59.843Z,1008.21
2019-03-23T06:14:59.825Z,1008.19
2019-03-23T06:15:59.844Z,1008.17
2019-03-23T06:16:59.831Z,1008.18
2019-03-23T06:17:59.877Z,1008.15
2019-03-23T06:18:59.781Z,1008.13
2019-03-23T06:19:59.774Z,1008.13
2019-03-23T06:20:59.759Z,1008.13
2019-03-23T06:21:59.779Z,1008.16
2019-03-23T06:22:59.735Z,1008.13
2019-03-23T06:23:59.728Z,1008.14
2019-03-23T06:24:59.717Z,1008.11
2019-03-23T06:25:59.736Z,1008.11
2019-03-23T06:26:59.719Z,1008.09
2019-03-23T06:27:59.680Z,1008.14
2019-03-23T06:28:59.668Z,1008.09
2019-03-23T06:29:59.686Z,1008.07
2019-03-23T06:30:59.652Z,1008.05
2019-03-23T06:31:59.639Z,1008.10
2019-03-23T06:32:59.624Z,1008.08
2019-03-23T06:33:59.613Z,1008.02
2019-03-23T06:34:59.631Z,1008.03
2019-03-23T06:35:59.617Z,1007.97
2019-03-23T06:36:59.581Z,1007.96
2019-03-23T06:37:59.568Z,1007.95
2019-03-23T06:39:05.443Z,1007.96
2019-03-23T06:40:00.547Z,1007.98
2019-03-23T06:40:59.560Z,1008.00
2019-03-23T06:41:59.523Z,1007.98
2019-03-23T06:43:00.113Z,1007.95
2019-03-23T06:43:59.500Z,1007.92
2019-03-23T06:44:59.494Z,1007.98
2019-03-23T06:45:59.480Z,1007.95
2019-03-23T06:46:59.498Z,1007.98
2019-03-23T06:47:59.461Z,1008.03
2019-03-23T06:48:59.444Z,1008.03
2019-03-23T06:49:59.437Z,1008.01
2019-03-23T06:50:59.425Z,1008.07
2019-03-23T06:51:59.441Z,1008.08
2019-03-23T06:52:59.403Z,1008.10
2019-03-23T06:53:59.426Z,1008.15
2019-03-23T06:54:59.394Z,1008.16
2019-03-23T06:55:59.367Z,1008.15
2019-03-23T06:56:59.355Z,1008.16
2019-03-23T06:57:59.376Z,1008.18
2019-03-23T06:58:59.332Z,1008.22
2019-03-23T06:59:59.324Z,1008.22
2019-03-23T07:00:59.314Z,1008.25
2019-03-23T07:01:59.302Z,1008.23
2019-03-23T07:02:59.315Z,1008.32
2019-03-23T07:03:59.283Z,1008.34
2019-03-23T07:04:59.264Z,1008.31
2019-03-23T07:05:59.254Z,1008.32
2019-03-23T07:06:59.243Z,1008.35
2019-03-23T07:07:59.257Z,1008.40
2019-03-23T07:08:59.220Z,1008.39
2019-03-23T07:09:59.212Z,1008.43
2019-03-23T07:10:59.729Z,1008.43
2019-03-23T07:11:59.217Z,1008.41
2019-03-23T07:12:59.181Z,1008.42
2019-03-23T07:13:59.165Z,1008.42
2019-03-23T07:14:59.153Z,1008.37
2019-03-23T07:15:59.147Z,1008.41
2019-03-23T07:16:59.156Z,1008.43
2019-03-23T07:17:59.123Z,1008.42
2019-03-23T07:18:59.109Z,1008.40
2019-03-23T07:19:59.122Z,1008.36
2019-03-23T07:20:59.093Z,1008.39
2019-03-23T07:21:59.100Z,1008.40
2019-03-23T07:22:59.063Z,1008.40
2019-03-23T07:23:59.056Z,1008.43
2019-03-23T07:24:59.044Z,1008.45
2019-03-23T07:25:59.060Z,1008.45
2019-03-23T07:26:59.022Z,1008.40
2019-03-23T07:27:59.011Z,1008.42
2019-03-23T07:28:59.001Z,1008.38
2019-03-23T07:29:58.985Z,1008.36
2019-03-23T07:30:59.009Z,1008.27
2019-03-23T07:32:05.594Z,1008.26
2019-03-23T07:32:59.951Z,1008.28
2019-03-23T07:33:58.944Z,1008.29
2019-03-23T07:34:58.930Z,1008.28
2019-03-23T07:35:58.942Z,1008.23
2019-03-23T07:36:58.909Z,1008.24
2019-03-23T07:37:58.898Z,1008.17
2019-03-23T07:38:58.883Z,1008.20
2019-03-23T07:39:58.874Z,1008.23
2019-03-23T07:40:58.883Z,1008.25
2019-03-23T07:41:58.876Z,1008.23
2019-03-23T07:42:58.838Z,1008.27
2019-03-23T07:43:58.824Z,1008.21
2019-03-23T07:44:58.820Z,1008.15
2019-03-23T07:45:58.817Z,1008.20
2019-03-23T07:46:58.819Z,1008.22
2019-03-23T07:47:58.784Z,1008.26
2019-03-23T07:48:58.778Z,1008.23
2019-03-23T07:49:58.759Z,1008.27
2019-03-23T07:50:58.750Z,1008.23
2019-03-23T07:51:58.764Z,1008.26
2019-03-23T07:52:58.725Z,1008.24
2019-03-23T07:53:58.716Z,1008.26
2019-03-23T07:54:58.726Z,1008.22
2019-03-23T07:55:58.695Z,1008.19
2019-03-23T07:56:58.679Z,1008.17
2019-03-23T07:57:58.695Z,1008.17
2019-03-23T07:58:58.657Z,1008.22
2019-03-23T07:59:58.647Z,1008.21
2019-03-23T08:00:58.662Z,1008.23
2019-03-23T08:01:58.622Z,1008.23
2019-03-23T08:02:58.617Z,1008.26
2019-03-23T08:03:58.600Z,1008.20
2019-03-23T08:04:58.590Z,1008.22
2019-03-23T08:05:58.601Z,1008.24
2019-03-23T08:06:58.567Z,1008.22
2019-03-23T08:07:58.562Z,1008.21
2019-03-23T08:08:58.551Z,1008.26
2019-03-23T08:09:58.548Z,1008.18
2019-03-23T08:10:58.547Z,1008.25
2019-03-23T08:11:58.509Z,1008.30
2019-03-23T08:12:58.548Z,1008.29
2019-03-23T08:13:58.493Z,1008.33
2019-03-23T08:14:58.482Z,1008.33
2019-03-23T08:15:58.498Z,1008.35
2019-03-23T08:16:58.472Z,1008.33
2019-03-23T08:17:58.450Z,1008.32
2019-03-23T08:18:58.443Z,1008.37
2019-03-23T08:19:58.448Z,1008.35
2019-03-23T08:20:58.463Z,1008.32
2019-03-23T08:21:58.401Z,1008.33
2019-03-23T08:22:58.498Z,1008.35
2019-03-23T08:23:58.373Z,1008.35
2019-03-23T08:24:58.390Z,1008.34
2019-03-23T08:25:58.355Z,1008.29
2019-03-23T08:26:58.341Z,1008.33
2019-03-23T08:27:58.362Z,1008.32
2019-03-23T08:28:58.318Z,1008.37
2019-03-23T08:29:58.334Z,1008.33
2019-03-23T08:30:58.297Z,1008.33
2019-03-23T08:31:58.287Z,1008.36
2019-03-23T08:32:58.298Z,1008.32
2019-03-23T08:33:58.265Z,1008.30
2019-03-23T08:34:58.251Z,1008.30
2019-03-23T08:35:58.244Z,1008.30
2019-03-23T08:36:58.230Z,1008.32
2019-03-23T08:37:58.247Z,1008.23
2019-03-23T08:38:58.209Z,1008.27
2019-03-23T08:39:58.201Z,1008.23
2019-03-23T08:40:58.188Z,1008.20
2019-03-23T08:41:58.176Z,1008.21
2019-03-23T08:42:58.186Z,1008.23
2019-03-23T08:43:58.152Z,1008.20
2019-03-23T08:44:58.139Z,1008.21
2019-03-23T08:45:58.131Z,1008.22
2019-03-23T08:46:58.121Z,1008.26
2019-03-23T08:47:58.180Z,1008.27
2019-03-23T08:48:58.101Z,1008.23
2019-03-23T08:49:59.661Z,1008.27
2019-03-23T08:50:58.113Z,1008.29
2019-03-23T08:51:58.059Z,1008.32
2019-03-23T08:52:58.052Z,1008.32
2019-03-23T08:53:58.037Z,1008.33
2019-03-23T08:54:58.050Z,1008.32
2019-03-23T08:55:58.020Z,1008.35
2019-03-23T08:56:58.011Z,1008.35
2019-03-23T08:57:57.999Z,1008.39
2019-03-23T08:58:57.982Z,1008.37
2019-03-23T08:59:57.997Z,1008.36
2019-03-23T09:00:58.013Z,1008.33
2019-03-23T09:01:57.947Z,1008.37
2019-03-23T09:02:57.943Z,1008.31
2019-03-23T09:03:57.924Z,1008.37
2019-03-23T09:04:57.938Z,1008.41
2019-03-23T09:05:57.902Z,1008.41
2019-03-23T09:06:57.897Z,1008.39
2019-03-23T09:07:57.881Z,1008.40
2019-03-23T09:08:57.891Z,1008.43
2019-03-23T09:09:59.340Z,1008.43
2019-03-23T09:10:57.846Z,1008.45
2019-03-23T09:11:57.850Z,1008.48
2019-03-23T09:12:57.827Z,1008.49
2019-03-23T09:13:57.840Z,1008.44
2019-03-23T09:14:57.798Z,1008.48
2019-03-23T09:15:57.791Z,1008.47
2019-03-23T09:16:57.776Z,1008.50
2019-03-23T09:17:57.769Z,1008.53
2019-03-23T09:18:57.768Z,1008.51
2019-03-23T09:19:57.753Z,1008.49
2019-03-23T09:20:57.730Z,1008.43
2019-03-23T09:21:57.752Z,1008.50
2019-03-23T09:22:57.712Z,1008.50
2019-03-23T09:23:57.708Z,1008.54
2019-03-23T09:24:57.690Z,1008.53
2019-03-23T09:25:57.678Z,1008.54
2019-03-23T09:26:57.687Z,1008.47
2019-03-23T09:27:57.673Z,1008.52
2019-03-23T09:28:57.645Z,1008.49
2019-03-23T09:29:57.633Z,1008.50
2019-03-23T09:30:57.635Z,1008.50
2019-03-23T09:31:57.634Z,1008.50
2019-03-23T09:32:57.602Z,1008.54
2019-03-23T09:33:57.587Z,1008.54
2019-03-23T09:34:57.595Z,1008.49
2019-03-23T09:35:57.567Z,1008.51
2019-03-23T09:36:57.578Z,1008.51
2019-03-23T09:37:57.541Z,1008.46
2019-03-23T09:38:57.532Z,1008.51
2019-03-23T09:39:58.750Z,1008.54
2019-03-23T09:40:57.508Z,1008.52
2019-03-23T09:41:57.515Z,1008.56
2019-03-23T09:42:57.486Z,1008.54
2019-03-23T09:43:57.471Z,1008.54
2019-03-23T09:44:57.465Z,1008.54
2019-03-23T09:45:57.448Z,1008.56
2019-03-23T09:46:57.479Z,1008.56
2019-03-23T09:47:57.431Z,1008.61
2019-03-23T09:48:57.415Z,1008.61
2019-03-23T09:49:57.404Z,1008.61
2019-03-23T09:50:57.397Z,1008.65
2019-03-23T09:51:57.410Z,1008.60
2019-03-23T09:52:57.392Z,1008.64
2019-03-23T09:53:57.362Z,1008.62
2019-03-23T09:54:57.353Z,1008.61
2019-03-23T09:55:57.340Z,1008.60
2019-03-23T09:56:59.515Z,1008.60
2019-03-23T09:57:57.342Z,1008.59
2019-03-23T09:58:57.311Z,1008.64
2019-03-23T09:59:57.291Z,1008.66
2019-03-23T10:00:57.284Z,1008.68
2019-03-23T10:01:57.275Z,1008.64
2019-03-23T10:02:57.279Z,1008.60
2019-03-23T10:03:57.246Z,1008.61
2019-03-23T10:04:57.235Z,1008.57
2019-03-23T10:05:57.226Z,1008.63
2019-03-23T10:06:57.213Z,1008.62
2019-03-23T10:07:57.230Z,1008.59
2019-03-23T10:08:57.233Z,1008.62
2019-03-23T10:09:57.184Z,1008.61
2019-03-23T10:10:57.172Z,1008.66
2019-03-23T10:11:59.131Z,1008.65
2019-03-23T10:12:57.147Z,1008.59
2019-03-23T10:13:57.160Z,1008.58
2019-03-23T10:14:57.122Z,1008.61
2019-03-23T10:15:57.117Z,1008.65
2019-03-23T10:16:57.105Z,1008.72
2019-03-23T10:17:57.115Z,1008.70
2019-03-23T10:18:57.080Z,1008.71
2019-03-23T10:19:57.072Z,1008.75
2019-03-23T10:20:57.059Z,1008.76
2019-03-23T10:21:57.046Z,1008.78
2019-03-23T10:22:57.053Z,1008.72
2019-03-23T10:23:57.029Z,1008.73
2019-03-23T10:24:57.007Z,1008.72
2019-03-23T10:25:56.997Z,1008.73
2019-03-23T10:26:56.993Z,1008.68
2019-03-23T10:27:56.995Z,1008.71
2019-03-23T10:28:56.966Z,1008.72
2019-03-23T10:29:56.979Z,1008.72
2019-03-23T10:30:56.962Z,1008.72
2019-03-23T10:31:56.934Z,1008.68
2019-03-23T10:32:56.937Z,1008.68
2019-03-23T10:33:56.928Z,1008.68
2019-03-23T10:34:56.903Z,1008.67
2019-03-23T10:35:56.884Z,1008.68
2019-03-23T10:36:56.887Z,1008.69
2019-03-23T10:37:56.888Z,1008.70
2019-03-23T10:38:56.854Z,1008.72
2019-03-23T10:39:56.874Z,1008.69
2019-03-23T10:40:56.832Z,1008.71
2019-03-23T10:41:56.849Z,1008.76
2019-03-23T10:42:56.806Z,1008.70
2019-03-23T10:43:56.799Z,1008.75
2019-03-23T10:44:56.786Z,1008.71
2019-03-23T10:45:56.772Z,1008.74
2019-03-23T10:46:56.784Z,1008.77
2019-03-23T10:48:56.744Z,1008.71
2019-03-23T10:49:56.733Z,1008.69
2019-03-23T10:50:56.742Z,1008.69
2019-03-23T10:51:56.705Z,1008.67
2019-03-23T10:52:56.697Z,1008.69
2019-03-23T10:53:56.689Z,1008.68
2019-03-23T10:54:56.676Z,1008.67
2019-03-23T10:55:56.690Z,1008.66
2019-03-23T10:56:56.648Z,1008.68
2019-03-23T10:57:56.639Z,1008.76
2019-03-23T10:58:56.658Z,1008.78
2019-03-23T10:59:56.616Z,1008.78
2019-03-23T11:00:56.606Z,1008.78
2019-03-23T11:01:56.595Z,1008.82
2019-03-23T11:02:56.586Z,1008.76
2019-03-23T11:03:56.600Z,1008.80
2019-03-23T11:04:56.567Z,1008.82
2019-03-23T11:05:56.552Z,1008.81
2019-03-23T11:06:56.539Z,1008.84
2019-03-23T11:07:56.530Z,1008.83
2019-03-23T11:08:56.559Z,1008.83
2019-03-23T11:09:56.506Z,1008.83
2019-03-23T11:10:56.497Z,1008.77
2019-03-23T11:11:56.484Z,1008.80
2019-03-23T11:12:56.496Z,1008.83
2019-03-23T11:13:56.460Z,1008.85
2019-03-23T11:14:56.453Z,1008.90
2019-03-23T11:15:56.440Z,1008.87
2019-03-23T11:16:56.426Z,1008.89
2019-03-23T11:17:56.450Z,1008.98
2019-03-23T11:18:56.401Z,1008.97
2019-03-23T11:19:58.442Z,1009.01
2019-03-23T11:20:56.382Z,1009.01
2019-03-23T11:21:56.367Z,1009.02
2019-03-23T11:22:56.403Z,1009.01
2019-03-23T11:23:56.347Z,1009.08
2019-03-23T11:24:56.337Z,1009.05
2019-03-23T11:25:56.323Z,1008.99
2019-03-23T11:26:56.315Z,1009.06
2019-03-23T11:27:56.319Z,1009.08
2019-03-23T11:28:56.297Z,1009.10
2019-03-23T11:29:56.278Z,1009.13
2019-03-23T11:30:56.271Z,1009.26
2019-03-23T11:31:56.261Z,1009.19
2019-03-23T11:32:56.271Z,1009.22
2019-03-23T11:33:56.260Z,1009.20
2019-03-23T11:34:56.252Z,1009.22
2019-03-23T11:35:57.979Z,1009.23
2019-03-23T11:36:56.203Z,1009.22
2019-03-23T11:37:56.444Z,1009.25
2019-03-23T11:38:56.200Z,1009.28
2019-03-23T11:39:56.165Z,1009.26
2019-03-23T11:40:56.168Z,1009.35
2019-03-23T11:41:56.148Z,1009.32
2019-03-23T11:42:56.132Z,1009.31
2019-03-23T11:43:56.153Z,1009.34
2019-03-23T11:44:56.183Z,1009.36
2019-03-23T11:45:56.100Z,1009.36
2019-03-23T11:46:56.086Z,1009.33
2019-03-23T11:47:56.105Z,1009.32
2019-03-23T11:48:56.070Z,1009.36
2019-03-23T11:49:56.058Z,1009.43
2019-03-23T11:50:56.067Z,1009.46
2019-03-23T11:51:56.034Z,1009.43
2019-03-23T11:52:56.026Z,1009.54
2019-03-23T11:53:56.012Z,1009.47
2019-03-23T11:54:56.003Z,1009.53
2019-03-23T11:55:56.013Z,1009.56
2019-03-23T11:56:55.981Z,1009.60
2019-03-23T11:57:55.968Z,1009.58
2019-03-23T11:58:55.967Z,1009.69
2019-03-23T11:59:55.948Z,1009.67
2019-03-23T12:00:55.936Z,1009.65
2019-03-23T12:01:55.922Z,1009.65
2019-03-23T12:02:55.931Z,1009.66
2019-03-23T12:03:55.898Z,1009.74
2019-03-23T12:04:55.887Z,1009.65
2019-03-23T12:05:55.876Z,1009.71